Locke Mills, Pennsylvania
Current Conditions -  °F | °C
As of 4:53 PM on Monday 20 Oct 2014 (Local Time) from KUNV Reporting Station
Broken Clouds Broken Clouds  
Wind Chill: 55°   Ceiling: 9000
Heat Index: 55°   Visibility: 10mi
Dew Point: 37°   Wind: 8mph
Humidity: 51%   Direction: 200°SSW
Pressure: 29.9"   Gusts: NA
Location:  40.7567°N, 77.488°W
Report Text: KUNV 202053Z 20007KT 10SM BKN090 BKN110 13/03 A2990
Loading
Personal Weather Stations






























Interactive Weather Map New forecast layout! Learn more

10-Day Weather Forecast

Advertisements
Track Severe Weather on mobile